sensor_id;sensor_type;location;lat;lon;timestamp;P1;durP1;ratioP1;P2;durP2;ratioP2
25915;SDS011;13719;48.188;11.618;2023-12-29T00:00:06;1.30;;;1.00;;
25915;SDS011;13719;48.188;11.618;2023-12-29T00:02:35;1.60;;;0.90;;
25915;SDS011;13719;48.188;11.618;2023-12-29T00:05:04;1.27;;;1.00;;
25915;SDS011;13719;48.188;11.618;2023-12-29T00:07:33;1.02;;;0.90;;
25915;SDS011;13719;48.188;11.618;2023-12-29T00:10:01;2.17;;;1.05;;
25915;SDS011;13719;48.188;11.618;2023-12-29T00:12:30;1.65;;;1.00;;
25915;SDS011;13719;48.188;11.618;2023-12-29T00:15:00;1.60;;;0.90;;
25915;SDS011;13719;48.188;11.618;2023-12-29T00:17:29;0.73;;;0.70;;
25915;SDS011;13719;48.188;11.618;2023-12-29T00:19:58;2.20;;;0.88;;
25915;SDS011;13719;48.188;11.618;2023-12-29T00:22:27;0.80;;;0.80;;
25915;SDS011;13719;48.188;11.618;2023-12-29T00:24:55;1.17;;;0.90;;
25915;SDS011;13719;48.188;11.618;2023-12-29T00:27:24;0.70;;;0.70;;
25915;SDS011;13719;48.188;11.618;2023-12-29T00:29:52;0.70;;;0.70;;
25915;SDS011;13719;48.188;11.618;2023-12-29T00:32:22;0.80;;;0.80;;
25915;SDS011;13719;48.188;11.618;2023-12-29T00:34:51;0.70;;;0.70;;
25915;SDS011;13719;48.188;11.618;2023-12-29T00:37:19;0.85;;;0.77;;
25915;SDS011;13719;48.188;11.618;2023-12-29T00:39:47;0.77;;;0.77;;
25915;SDS011;13719;48.188;11.618;2023-12-29T00:42:17;1.05;;;0.80;;
25915;SDS011;13719;48.188;11.618;2023-12-29T00:44:45;0.70;;;0.70;;
25915;SDS011;13719;48.188;11.618;2023-12-29T00:47:13;0.82;;;0.70;;
25915;SDS011;13719;48.188;11.618;2023-12-29T00:49:43;1.10;;;0.85;;
25915;SDS011;13719;48.188;11.618;2023-12-29T00:52:12;0.70;;;0.70;;
25915;SDS011;13719;48.188;11.618;2023-12-29T00:54:40;0.73;;;0.73;;
25915;SDS011;13719;48.188;11.618;2023-12-29T00:57:09;0.88;;;0.70;;
25915;SDS011;13719;48.188;11.618;2023-12-29T00:59:37;0.73;;;0.65;;
25915;SDS011;13719;48.188;11.618;2023-12-29T01:02:06;0.93;;;0.85;;
25915;SDS011;13719;48.188;11.618;2023-12-29T01:04:35;1.05;;;0.80;;
25915;SDS011;13719;48.188;11.618;2023-12-29T01:07:07;1.02;;;0.82;;
25915;SDS011;13719;48.188;11.618;2023-12-29T01:09:37;0.70;;;0.70;;
25915;SDS011;13719;48.188;11.618;2023-12-29T01:12:06;1.20;;;0.80;;
25915;SDS011;13719;48.188;11.618;2023-12-29T01:14:35;0.93;;;0.82;;
25915;SDS011;13719;48.188;11.618;2023-12-29T01:17:03;1.63;;;0.90;;
25915;SDS011;13719;48.188;11.618;2023-12-29T01:19:32;1.52;;;1.10;;
25915;SDS011;13719;48.188;11.618;2023-12-29T01:22:01;1.85;;;1.10;;
25915;SDS011;13719;48.188;11.618;2023-12-29T01:24:31;1.05;;;0.90;;
25915;SDS011;13719;48.188;11.618;2023-12-29T01:27:11;1.17;;;0.98;;
25915;SDS011;13719;48.188;11.618;2023-12-29T01:29:39;0.85;;;0.85;;
25915;SDS011;13719;48.188;11.618;2023-12-29T01:32:08;1.10;;;1.00;;
25915;SDS011;13719;48.188;11.618;2023-12-29T01:34:37;1.33;;;0.90;;
25915;SDS011;13719;48.188;11.618;2023-12-29T01:37:05;1.38;;;0.90;;
25915;SDS011;13719;48.188;11.618;2023-12-29T01:39:35;1.50;;;1.00;;
25915;SDS011;13719;48.188;11.618;2023-12-29T01:42:04;1.20;;;1.10;;
25915;SDS011;13719;48.188;11.618;2023-12-29T01:44:33;1.42;;;1.05;;
25915;SDS011;13719;48.188;11.618;2023-12-29T01:47:01;1.15;;;0.90;;
25915;SDS011;13719;48.188;11.618;2023-12-29T01:49:31;1.80;;;1.10;;
25915;SDS011;13719;48.188;11.618;2023-12-29T01:52:00;1.33;;;1.00;;
25915;SDS011;13719;48.188;11.618;2023-12-29T01:54:30;1.95;;;1.02;;
25915;SDS011;13719;48.188;11.618;2023-12-29T01:57:00;1.50;;;0.93;;
25915;SDS011;13719;48.188;11.618;2023-12-29T01:59:30;1.00;;;0.80;;
25915;SDS011;13719;48.188;11.618;2023-12-29T02:01:59;1.35;;;1.00;;
25915;SDS011;13719;48.188;11.618;2023-12-29T02:04:29;1.30;;;1.20;;
25915;SDS011;13719;48.188;11.618;2023-12-29T02:06:59;1.33;;;0.95;;
25915;SDS011;13719;48.188;11.618;2023-12-29T02:09:27;1.58;;;0.93;;
25915;SDS011;13719;48.188;11.618;2023-12-29T02:11:56;1.05;;;0.95;;
25915;SDS011;13719;48.188;11.618;2023-12-29T02:14:26;1.95;;;1.15;;
25915;SDS011;13719;48.188;11.618;2023-12-29T02:16:56;1.20;;;0.90;;
25915;SDS011;13719;48.188;11.618;2023-12-29T02:19:39;1.02;;;0.88;;
25915;SDS011;13719;48.188;11.618;2023-12-29T02:22:09;1.27;;;1.10;;
25915;SDS011;13719;48.188;11.618;2023-12-29T02:24:38;1.08;;;0.98;;
25915;SDS011;13719;48.188;11.618;2023-12-29T02:27:11;1.30;;;0.82;;
25915;SDS011;13719;48.188;11.618;2023-12-29T02:29:40;3.30;;;1.30;;
25915;SDS011;13719;48.188;11.618;2023-12-29T02:32:13;1.27;;;1.10;;
25915;SDS011;13719;48.188;11.618;2023-12-29T02:34:44;2.78;;;1.10;;
25915;SDS011;13719;48.188;11.618;2023-12-29T02:37:13;1.00;;;0.90;;
25915;SDS011;13719;48.188;11.618;2023-12-29T02:39:42;1.92;;;1.10;;
25915;SDS011;13719;48.188;11.618;2023-12-29T02:42:12;1.80;;;1.17;;
25915;SDS011;13719;48.188;11.618;2023-12-29T02:44:40;1.02;;;0.93;;
25915;SDS011;13719;48.188;11.618;2023-12-29T02:47:09;1.42;;;1.20;;
25915;SDS011;13719;48.188;11.618;2023-12-29T02:49:37;1.38;;;1.02;;
25915;SDS011;13719;48.188;11.618;2023-12-29T02:52:06;1.13;;;0.90;;
25915;SDS011;13719;48.188;11.618;2023-12-29T02:54:35;1.58;;;1.00;;
25915;SDS011;13719;48.188;11.618;2023-12-29T02:57:03;1.42;;;0.98;;
25915;SDS011;13719;48.188;11.618;2023-12-29T02:59:33;1.30;;;1.02;;
25915;SDS011;13719;48.188;11.618;2023-12-29T03:02:03;1.15;;;1.00;;
25915;SDS011;13719;48.188;11.618;2023-12-29T03:04:32;1.30;;;0.95;;
25915;SDS011;13719;48.188;11.618;2023-12-29T03:07:00;1.50;;;1.00;;
25915;SDS011;13719;48.188;11.618;2023-12-29T03:09:29;1.23;;;1.00;;
25915;SDS011;13719;48.188;11.618;2023-12-29T03:11:57;1.20;;;1.02;;
25915;SDS011;13719;48.188;11.618;2023-12-29T03:14:25;3.38;;;1.20;;
25915;SDS011;13719;48.188;11.618;2023-12-29T03:16:55;1.73;;;1.33;;
25915;SDS011;13719;48.188;11.618;2023-12-29T03:19:24;1.05;;;0.90;;
25915;SDS011;13719;48.188;11.618;2023-12-29T03:21:53;1.67;;;1.10;;
25915;SDS011;13719;48.188;11.618;2023-12-29T03:24:22;2.13;;;1.35;;
25915;SDS011;13719;48.188;11.618;2023-12-29T03:26:50;1.75;;;1.13;;
25915;SDS011;13719;48.188;11.618;2023-12-29T03:29:19;1.95;;;1.00;;
25915;SDS011;13719;48.188;11.618;2023-12-29T03:31:47;1.67;;;1.15;;
25915;SDS011;13719;48.188;11.618;2023-12-29T03:34:17;1.10;;;1.00;;
25915;SDS011;13719;48.188;11.618;2023-12-29T03:36:46;1.10;;;1.00;;
25915;SDS011;13719;48.188;11.618;2023-12-29T03:39:15;1.30;;;1.00;;
25915;SDS011;13719;48.188;11.618;2023-12-29T03:41:43;1.73;;;1.02;;
25915;SDS011;13719;48.188;11.618;2023-12-29T03:44:11;3.40;;;1.25;;
25915;SDS011;13719;48.188;11.618;2023-12-29T03:46:40;1.63;;;1.10;;
25915;SDS011;13719;48.188;11.618;2023-12-29T03:49:08;1.30;;;1.20;;
25915;SDS011;13719;48.188;11.618;2023-12-29T03:51:38;1.63;;;1.10;;
25915;SDS011;13719;48.188;11.618;2023-12-29T03:54:06;1.00;;;0.90;;
25915;SDS011;13719;48.188;11.618;2023-12-29T03:56:35;1.38;;;1.02;;
25915;SDS011;13719;48.188;11.618;2023-12-29T03:59:03;2.42;;;1.10;;
25915;SDS011;13719;48.188;11.618;2023-12-29T04:01:33;1.00;;;0.90;;
25915;SDS011;13719;48.188;11.618;2023-12-29T04:04:02;1.13;;;1.00;;
25915;SDS011;13719;48.188;11.618;2023-12-29T04:06:30;1.60;;;1.17;;
25915;SDS011;13719;48.188;11.618;2023-12-29T04:09:00;1.25;;;0.98;;
25915;SDS011;13719;48.188;11.618;2023-12-29T04:11:28;1.50;;;1.10;;
25915;SDS011;13719;48.188;11.618;2023-12-29T04:13:57;1.30;;;1.00;;
25915;SDS011;13719;48.188;11.618;2023-12-29T04:16:25;1.20;;;1.00;;
25915;SDS011;13719;48.188;11.618;2023-12-29T04:18:53;1.17;;;1.00;;
25915;SDS011;13719;48.188;11.618;2023-12-29T04:21:22;1.10;;;1.00;;
25915;SDS011;13719;48.188;11.618;2023-12-29T04:23:50;1.98;;;1.08;;
25915;SDS011;13719;48.188;11.618;2023-12-29T04:26:20;1.05;;;0.95;;
25915;SDS011;13719;48.188;11.618;2023-12-29T04:28:48;1.73;;;1.23;;
25915;SDS011;13719;48.188;11.618;2023-12-29T04:31:16;1.40;;;1.10;;
25915;SDS011;13719;48.188;11.618;2023-12-29T04:33:45;2.55;;;1.10;;
25915;SDS011;13719;48.188;11.618;2023-12-29T04:36:13;0.85;;;0.85;;
25915;SDS011;13719;48.188;11.618;2023-12-29T04:38:42;2.17;;;1.27;;
25915;SDS011;13719;48.188;11.618;2023-12-29T04:41:11;1.52;;;1.15;;
25915;SDS011;13719;48.188;11.618;2023-12-29T04:43:41;1.30;;;0.98;;
25915;SDS011;13719;48.188;11.618;2023-12-29T04:46:09;1.75;;;1.20;;
25915;SDS011;13719;48.188;11.618;2023-12-29T04:48:38;1.38;;;1.00;;
25915;SDS011;13719;48.188;11.618;2023-12-29T04:51:06;1.65;;;0.98;;
25915;SDS011;13719;48.188;11.618;2023-12-29T04:53:34;1.27;;;1.00;;
25915;SDS011;13719;48.188;11.618;2023-12-29T04:56:03;1.13;;;1.00;;
25915;SDS011;13719;48.188;11.618;2023-12-29T04:58:32;1.33;;;0.90;;
25915;SDS011;13719;48.188;11.618;2023-12-29T05:01:02;1.60;;;1.17;;
25915;SDS011;13719;48.188;11.618;2023-12-29T05:03:30;0.93;;;0.88;;
25915;SDS011;13719;48.188;11.618;2023-12-29T05:05:58;1.15;;;1.00;;
25915;SDS011;13719;48.188;11.618;2023-12-29T05:08:27;1.52;;;1.10;;
25915;SDS011;13719;48.188;11.618;2023-12-29T05:10:55;1.98;;;1.30;;
25915;SDS011;13719;48.188;11.618;2023-12-29T05:13:24;1.40;;;1.00;;
25915;SDS011;13719;48.188;11.618;2023-12-29T05:15:52;1.50;;;1.08;;
25915;SDS011;13719;48.188;11.618;2023-12-29T05:18:22;1.15;;;1.00;;
25915;SDS011;13719;48.188;11.618;2023-12-29T05:20:50;1.10;;;1.00;;
25915;SDS011;13719;48.188;11.618;2023-12-29T05:23:19;1.38;;;1.08;;
25915;SDS011;13719;48.188;11.618;2023-12-29T05:25:47;1.23;;;1.10;;
25915;SDS011;13719;48.188;11.618;2023-12-29T05:28:15;1.00;;;0.90;;
25915;SDS011;13719;48.188;11.618;2023-12-29T05:30:44;1.50;;;1.20;;
25915;SDS011;13719;48.188;11.618;2023-12-29T05:33:13;1.27;;;1.00;;
25915;SDS011;13719;48.188;11.618;2023-12-29T05:35:42;4.75;;;1.40;;
25915;SDS011;13719;48.188;11.618;2023-12-29T05:38:11;1.52;;;0.98;;
25915;SDS011;13719;48.188;11.618;2023-12-29T05:40:39;1.67;;;1.02;;
25915;SDS011;13719;48.188;11.618;2023-12-29T05:43:08;1.30;;;1.20;;
25915;SDS011;13719;48.188;11.618;2023-12-29T05:45:36;1.45;;;1.13;;
25915;SDS011;13719;48.188;11.618;2023-12-29T05:48:05;1.90;;;1.33;;
25915;SDS011;13719;48.188;11.618;2023-12-29T05:50:35;1.23;;;1.08;;
25915;SDS011;13719;48.188;11.618;2023-12-29T05:53:04;1.27;;;1.00;;
25915;SDS011;13719;48.188;11.618;2023-12-29T05:55:33;1.67;;;1.20;;
25915;SDS011;13719;48.188;11.618;2023-12-29T05:58:02;2.88;;;1.15;;
25915;SDS011;13719;48.188;11.618;2023-12-29T06:00:31;1.10;;;1.00;;
25915;SDS011;13719;48.188;11.618;2023-12-29T06:02:59;1.13;;;1.00;;
25915;SDS011;13719;48.188;11.618;2023-12-29T06:05:27;2.08;;;1.23;;
25915;SDS011;13719;48.188;11.618;2023-12-29T06:07:56;3.67;;;1.10;;
25915;SDS011;13719;48.188;11.618;2023-12-29T06:10:26;2.22;;;1.30;;
25915;SDS011;13719;48.188;11.618;2023-12-29T06:12:54;1.75;;;1.23;;
25915;SDS011;13719;48.188;11.618;2023-12-29T06:15:32;2.00;;;1.48;;
25915;SDS011;13719;48.188;11.618;2023-12-29T06:18:02;1.67;;;1.10;;
25915;SDS011;13719;48.188;11.618;2023-12-29T06:20:32;2.75;;;1.20;;
25915;SDS011;13719;48.188;11.618;2023-12-29T06:23:06;1.52;;;1.17;;
25915;SDS011;13719;48.188;11.618;2023-12-29T06:25:40;1.00;;;0.90;;
25915;SDS011;13719;48.188;11.618;2023-12-29T06:28:11;1.52;;;1.10;;
25915;SDS011;13719;48.188;11.618;2023-12-29T06:30:40;2.42;;;1.15;;
25915;SDS011;13719;48.188;11.618;2023-12-29T06:33:09;1.00;;;0.90;;
25915;SDS011;13719;48.188;11.618;2023-12-29T06:35:37;1.23;;;1.10;;
25915;SDS011;13719;48.188;11.618;2023-12-29T06:38:06;1.17;;;0.90;;
25915;SDS011;13719;48.188;11.618;2023-12-29T06:40:34;1.25;;;1.05;;
25915;SDS011;13719;48.188;11.618;2023-12-29T06:43:04;2.70;;;1.23;;
25915;SDS011;13719;48.188;11.618;2023-12-29T06:45:33;1.40;;;0.90;;
25915;SDS011;13719;48.188;11.618;2023-12-29T06:48:01;1.92;;;1.10;;
25915;SDS011;13719;48.188;11.618;2023-12-29T06:50:30;1.60;;;1.27;;
25915;SDS011;13719;48.188;11.618;2023-12-29T06:52:59;1.33;;;1.00;;
25915;SDS011;13719;48.188;11.618;2023-12-29T06:55:27;1.77;;;1.17;;
25915;SDS011;13719;48.188;11.618;2023-12-29T06:57:56;2.28;;;1.38;;
25915;SDS011;13719;48.188;11.618;2023-12-29T07:00:26;1.58;;;1.25;;
25915;SDS011;13719;48.188;11.618;2023-12-29T07:02:55;1.25;;;1.00;;
25915;SDS011;13719;48.188;11.618;2023-12-29T07:05:23;1.45;;;1.00;;
25915;SDS011;13719;48.188;11.618;2023-12-29T07:07:52;1.10;;;1.00;;
25915;SDS011;13719;48.188;11.618;2023-12-29T07:10:20;1.10;;;1.00;;
25915;SDS011;13719;48.188;11.618;2023-12-29T07:12:49;1.15;;;1.05;;
25915;SDS011;13719;48.188;11.618;2023-12-29T07:15:18;1.25;;;1.00;;
25915;SDS011;13719;48.188;11.618;2023-12-29T07:17:48;1.15;;;1.00;;
25915;SDS011;13719;48.188;11.618;2023-12-29T07:20:16;0.90;;;0.80;;
25915;SDS011;13719;48.188;11.618;2023-12-29T07:22:45;1.13;;;0.90;;
25915;SDS011;13719;48.188;11.618;2023-12-29T07:25:13;1.02;;;1.00;;
25915;SDS011;13719;48.188;11.618;2023-12-29T07:27:42;1.25;;;0.90;;
25915;SDS011;13719;48.188;11.618;2023-12-29T07:30:11;1.27;;;1.15;;
25915;SDS011;13719;48.188;11.618;2023-12-29T07:32:39;1.45;;;1.10;;
25915;SDS011;13719;48.188;11.618;2023-12-29T07:35:09;3.75;;;1.00;;
25915;SDS011;13719;48.188;11.618;2023-12-29T07:37:41;1.08;;;0.98;;
25915;SDS011;13719;48.188;11.618;2023-12-29T07:40:10;1.60;;;0.95;;
25915;SDS011;13719;48.188;11.618;2023-12-29T07:42:39;1.15;;;0.90;;
25915;SDS011;13719;48.188;11.618;2023-12-29T07:45:08;0.77;;;0.77;;
25915;SDS011;13719;48.188;11.618;2023-12-29T07:47:37;1.20;;;0.85;;
25915;SDS011;13719;48.188;11.618;2023-12-29T07:50:06;1.10;;;0.93;;
25915;SDS011;13719;48.188;11.618;2023-12-29T07:52:36;1.17;;;0.82;;
25915;SDS011;13719;48.188;11.618;2023-12-29T07:55:04;1.38;;;1.15;;
25915;SDS011;13719;48.188;11.618;2023-12-29T07:57:33;0.90;;;0.75;;
25915;SDS011;13719;48.188;11.618;2023-12-29T08:00:01;1.02;;;0.93;;
25915;SDS011;13719;48.188;11.618;2023-12-29T08:02:32;1.80;;;0.70;;
25915;SDS011;13719;48.188;11.618;2023-12-29T08:05:01;0.80;;;0.80;;
25915;SDS011;13719;48.188;11.618;2023-12-29T08:07:30;0.80;;;0.80;;
25915;SDS011;13719;48.188;11.618;2023-12-29T08:10:00;1.42;;;0.90;;
25915;SDS011;13719;48.188;11.618;2023-12-29T08:12:31;1.13;;;0.93;;
25915;SDS011;13719;48.188;11.618;2023-12-29T08:15:00;0.77;;;0.75;;
25915;SDS011;13719;48.188;11.618;2023-12-29T08:17:29;0.90;;;0.90;;
25915;SDS011;13719;48.188;11.618;2023-12-29T08:19:57;1.33;;;0.85;;
25915;SDS011;13719;48.188;11.618;2023-12-29T08:22:27;1.15;;;0.95;;
25915;SDS011;13719;48.188;11.618;2023-12-29T08:24:55;0.75;;;0.75;;
25915;SDS011;13719;48.188;11.618;2023-12-29T08:27:25;4.45;;;1.10;;
25915;SDS011;13719;48.188;11.618;2023-12-29T08:29:54;0.95;;;0.90;;
25915;SDS011;13719;48.188;11.618;2023-12-29T08:32:22;1.17;;;1.02;;
25915;SDS011;13719;48.188;11.618;2023-12-29T08:34:51;1.02;;;0.93;;
25915;SDS011;13719;48.188;11.618;2023-12-29T08:37:19;1.30;;;0.85;;
25915;SDS011;13719;48.188;11.618;2023-12-29T08:39:48;1.58;;;0.98;;
25915;SDS011;13719;48.188;11.618;2023-12-29T08:42:16;1.05;;;0.95;;
25915;SDS011;13719;48.188;11.618;2023-12-29T08:44:46;1.45;;;0.98;;
25915;SDS011;13719;48.188;11.618;2023-12-29T08:47:15;0.90;;;0.80;;
25915;SDS011;13719;48.188;11.618;2023-12-29T08:49:43;1.35;;;1.17;;
25915;SDS011;13719;48.188;11.618;2023-12-29T08:52:12;1.20;;;1.10;;
25915;SDS011;13719;48.188;11.618;2023-12-29T08:54:41;1.00;;;0.80;;
25915;SDS011;13719;48.188;11.618;2023-12-29T08:57:09;1.90;;;0.98;;
25915;SDS011;13719;48.188;11.618;2023-12-29T08:59:37;2.63;;;1.00;;
25915;SDS011;13719;48.188;11.618;2023-12-29T09:02:07;1.25;;;0.90;;
25915;SDS011;13719;48.188;11.618;2023-12-29T09:04:36;1.30;;;1.20;;
25915;SDS011;13719;48.188;11.618;2023-12-29T09:07:04;4.10;;;1.00;;
25915;SDS011;13719;48.188;11.618;2023-12-29T09:09:33;1.10;;;1.00;;
25915;SDS011;13719;48.188;11.618;2023-12-29T09:12:01;0.80;;;0.80;;
25915;SDS011;13719;48.188;11.618;2023-12-29T09:14:30;1.85;;;1.20;;
25915;SDS011;13719;48.188;11.618;2023-12-29T09:17:01;1.33;;;0.95;;
25915;SDS011;13719;48.188;11.618;2023-12-29T09:19:30;1.63;;;1.10;;
25915;SDS011;13719;48.188;11.618;2023-12-29T09:22:05;1.13;;;1.02;;
25915;SDS011;13719;48.188;11.618;2023-12-29T09:24:34;1.08;;;0.90;;
25915;SDS011;13719;48.188;11.618;2023-12-29T09:27:03;1.38;;;1.00;;
25915;SDS011;13719;48.188;11.618;2023-12-29T09:29:32;0.85;;;0.85;;
25915;SDS011;13719;48.188;11.618;2023-12-29T09:32:00;1.10;;;0.90;;
25915;SDS011;13719;48.188;11.618;2023-12-29T09:34:29;1.77;;;0.90;;
25915;SDS011;13719;48.188;11.618;2023-12-29T09:36:58;1.65;;;0.80;;
25915;SDS011;13719;48.188;11.618;2023-12-29T09:39:27;1.75;;;0.85;;
25915;SDS011;13719;48.188;11.618;2023-12-29T09:41:57;1.00;;;0.80;;
25915;SDS011;13719;48.188;11.618;2023-12-29T09:44:27;0.75;;;0.75;;
25915;SDS011;13719;48.188;11.618;2023-12-29T09:46:57;0.93;;;0.90;;
25915;SDS011;13719;48.188;11.618;2023-12-29T09:49:26;1.80;;;0.90;;
25915;SDS011;13719;48.188;11.618;2023-12-29T09:51:55;1.35;;;0.80;;
25915;SDS011;13719;48.188;11.618;2023-12-29T09:54:26;1.20;;;0.82;;
25915;SDS011;13719;48.188;11.618;2023-12-29T09:56:54;1.35;;;0.93;;
25915;SDS011;13719;48.188;11.618;2023-12-29T09:59:23;1.80;;;0.80;;
25915;SDS011;13719;48.188;11.618;2023-12-29T10:01:52;0.93;;;0.73;;
25915;SDS011;13719;48.188;11.618;2023-12-29T10:04:21;1.00;;;0.95;;
25915;SDS011;13719;48.188;11.618;2023-12-29T10:06:49;1.08;;;0.93;;
25915;SDS011;13719;48.188;11.618;2023-12-29T10:09:18;0.80;;;0.63;;
25915;SDS011;13719;48.188;11.618;2023-12-29T10:11:49;0.80;;;0.80;;
25915;SDS011;13719;48.188;11.618;2023-12-29T10:14:21;2.15;;;0.80;;
25915;SDS011;13719;48.188;11.618;2023-12-29T10:16:52;0.68;;;0.68;;
25915;SDS011;13719;48.188;11.618;2023-12-29T10:19:23;0.95;;;0.77;;
25915;SDS011;13719;48.188;11.618;2023-12-29T10:21:55;0.95;;;0.70;;
25915;SDS011;13719;48.188;11.618;2023-12-29T10:24:29;1.10;;;0.80;;
25915;SDS011;13719;48.188;11.618;2023-12-29T10:26:59;1.17;;;0.88;;
25915;SDS011;13719;48.188;11.618;2023-12-29T10:29:27;0.70;;;0.70;;
25915;SDS011;13719;48.188;11.618;2023-12-29T10:31:56;0.80;;;0.80;;
25915;SDS011;13719;48.188;11.618;2023-12-29T10:34:25;0.95;;;0.70;;
25915;SDS011;13719;48.188;11.618;2023-12-29T10:36:57;1.55;;;0.70;;
25915;SDS011;13719;48.188;11.618;2023-12-29T10:39:25;0.80;;;0.70;;
25915;SDS011;13719;48.188;11.618;2023-12-29T10:42:03;0.85;;;0.73;;
25915;SDS011;13719;48.188;11.618;2023-12-29T10:44:33;0.77;;;0.77;;
25915;SDS011;13719;48.188;11.618;2023-12-29T10:47:07;0.60;;;0.60;;
25915;SDS011;13719;48.188;11.618;2023-12-29T10:49:36;0.50;;;0.50;;
25915;SDS011;13719;48.188;11.618;2023-12-29T10:52:11;0.70;;;0.70;;
25915;SDS011;13719;48.188;11.618;2023-12-29T10:54:41;0.68;;;0.68;;
25915;SDS011;13719;48.188;11.618;2023-12-29T10:57:11;0.95;;;0.82;;
25915;SDS011;13719;48.188;11.618;2023-12-29T10:59:40;0.60;;;0.60;;
25915;SDS011;13719;48.188;11.618;2023-12-29T11:02:11;1.95;;;0.57;;
25915;SDS011;13719;48.188;11.618;2023-12-29T11:04:42;1.50;;;0.73;;
25915;SDS011;13719;48.188;11.618;2023-12-29T11:07:11;0.75;;;0.68;;
25915;SDS011;13719;48.188;11.618;2023-12-29T11:09:40;2.22;;;0.90;;
25915;SDS011;13719;48.188;11.618;2023-12-29T11:12:10;1.05;;;0.60;;
25915;SDS011;13719;48.188;11.618;2023-12-29T11:14:40;0.77;;;0.60;;
25915;SDS011;13719;48.188;11.618;2023-12-29T11:17:12;1.70;;;0.82;;
25915;SDS011;13719;48.188;11.618;2023-12-29T11:19:42;0.50;;;0.50;;
25915;SDS011;13719;48.188;11.618;2023-12-29T11:22:13;0.75;;;0.60;;
25915;SDS011;13719;48.188;11.618;2023-12-29T11:24:43;1.30;;;0.60;;
25915;SDS011;13719;48.188;11.618;2023-12-29T11:27:15;0.50;;;0.50;;
25915;SDS011;13719;48.188;11.618;2023-12-29T11:29:44;2.00;;;0.70;;
25915;SDS011;13719;48.188;11.618;2023-12-29T11:32:15;0.80;;;0.60;;
25915;SDS011;13719;48.188;11.618;2023-12-29T11:34:46;0.80;;;0.60;;
25915;SDS011;13719;48.188;11.618;2023-12-29T11:37:18;0.70;;;0.70;;
25915;SDS011;13719;48.188;11.618;2023-12-29T11:39:50;1.15;;;0.80;;
25915;SDS011;13719;48.188;11.618;2023-12-29T11:42:23;0.65;;;0.60;;
25915;SDS011;13719;48.188;11.618;2023-12-29T11:44:57;0.85;;;0.80;;
25915;SDS011;13719;48.188;11.618;2023-12-29T11:47:34;0.60;;;0.60;;
25915;SDS011;13719;48.188;11.618;2023-12-29T11:50:04;0.80;;;0.70;;
25915;SDS011;13719;48.188;11.618;2023-12-29T11:52:33;0.75;;;0.75;;
25915;SDS011;13719;48.188;11.618;2023-12-29T11:55:07;0.88;;;0.70;;
25915;SDS011;13719;48.188;11.618;2023-12-29T12:00:07;1.08;;;0.70;;
25915;SDS011;13719;48.188;11.618;2023-12-29T12:02:35;1.02;;;0.90;;
25915;SDS011;13719;48.188;11.618;2023-12-29T12:05:04;0.80;;;0.77;;
25915;SDS011;13719;48.188;11.618;2023-12-29T12:10:30;0.68;;;0.68;;
25915;SDS011;13719;48.188;11.618;2023-12-29T12:13:00;0.70;;;0.70;;
25915;SDS011;13719;48.188;11.618;2023-12-29T12:15:33;1.70;;;0.80;;
25915;SDS011;13719;48.188;11.618;2023-12-29T12:18:03;1.58;;;0.77;;
25915;SDS011;13719;48.188;11.618;2023-12-29T12:20:34;1.05;;;0.70;;
25915;SDS011;13719;48.188;11.618;2023-12-29T12:23:03;0.70;;;0.60;;
25915;SDS011;13719;48.188;11.618;2023-12-29T12:25:33;1.15;;;0.80;;
25915;SDS011;13719;48.188;11.618;2023-12-29T12:28:05;1.00;;;0.88;;
25915;SDS011;13719;48.188;11.618;2023-12-29T12:30:35;0.93;;;0.70;;
25915;SDS011;13719;48.188;11.618;2023-12-29T12:33:04;0.80;;;0.70;;
25915;SDS011;13719;48.188;11.618;2023-12-29T12:35:33;0.93;;;0.77;;
25915;SDS011;13719;48.188;11.618;2023-12-29T12:38:08;0.90;;;0.80;;
25915;SDS011;13719;48.188;11.618;2023-12-29T12:40:37;0.70;;;0.70;;
25915;SDS011;13719;48.188;11.618;2023-12-29T12:43:05;0.63;;;0.63;;
25915;SDS011;13719;48.188;11.618;2023-12-29T12:45:41;0.70;;;0.68;;
25915;SDS011;13719;48.188;11.618;2023-12-29T12:48:12;0.80;;;0.80;;
25915;SDS011;13719;48.188;11.618;2023-12-29T12:50:42;0.60;;;0.60;;
25915;SDS011;13719;48.188;11.618;2023-12-29T12:53:12;1.65;;;0.70;;
25915;SDS011;13719;48.188;11.618;2023-12-29T12:55:47;0.65;;;0.63;;
25915;SDS011;13719;48.188;11.618;2023-12-29T12:58:17;1.35;;;0.90;;
25915;SDS011;13719;48.188;11.618;2023-12-29T13:00:48;2.65;;;0.80;;
25915;SDS011;13719;48.188;11.618;2023-12-29T13:03:20;1.77;;;0.77;;
25915;SDS011;13719;48.188;11.618;2023-12-29T13:05:49;1.13;;;0.70;;
25915;SDS011;13719;48.188;11.618;2023-12-29T13:08:18;1.52;;;0.70;;
25915;SDS011;13719;48.188;11.618;2023-12-29T13:11:00;1.52;;;0.70;;
25915;SDS011;13719;48.188;11.618;2023-12-29T13:13:35;0.70;;;0.70;;
25915;SDS011;13719;48.188;11.618;2023-12-29T13:16:05;1.25;;;0.85;;
25915;SDS011;13719;48.188;11.618;2023-12-29T13:18:34;0.85;;;0.70;;
25915;SDS011;13719;48.188;11.618;2023-12-29T13:21:03;1.05;;;0.70;;
25915;SDS011;13719;48.188;11.618;2023-12-29T13:23:32;1.50;;;0.70;;
25915;SDS011;13719;48.188;11.618;2023-12-29T13:26:02;1.60;;;0.70;;
25915;SDS011;13719;48.188;11.618;2023-12-29T13:28:33;0.65;;;0.65;;
25915;SDS011;13719;48.188;11.618;2023-12-29T13:31:06;1.67;;;0.80;;
25915;SDS011;13719;48.188;11.618;2023-12-29T13:33:36;1.15;;;0.88;;
25915;SDS011;13719;48.188;11.618;2023-12-29T13:36:16;4.07;;;0.90;;
25915;SDS011;13719;48.188;11.618;2023-12-29T13:38:49;0.85;;;0.50;;
25915;SDS011;13719;48.188;11.618;2023-12-29T13:41:19;0.60;;;0.60;;
25915;SDS011;13719;48.188;11.618;2023-12-29T13:43:49;0.60;;;0.60;;
25915;SDS011;13719;48.188;11.618;2023-12-29T13:46:19;1.52;;;0.70;;
25915;SDS011;13719;48.188;11.618;2023-12-29T13:48:48;0.90;;;0.75;;
25915;SDS011;13719;48.188;11.618;2023-12-29T13:51:21;0.50;;;0.50;;
25915;SDS011;13719;48.188;11.618;2023-12-29T13:53:57;0.60;;;0.60;;
25915;SDS011;13719;48.188;11.618;2023-12-29T13:56:26;0.60;;;0.60;;
25915;SDS011;13719;48.188;11.618;2023-12-29T13:58:54;1.05;;;0.60;;
25915;SDS011;13719;48.188;11.618;2023-12-29T14:01:24;0.63;;;0.60;;
25915;SDS011;13719;48.188;11.618;2023-12-29T14:03:54;0.60;;;0.60;;
25915;SDS011;13719;48.188;11.618;2023-12-29T14:06:26;0.40;;;0.40;;
25915;SDS011;13719;48.188;11.618;2023-12-29T14:08:55;0.60;;;0.60;;
25915;SDS011;13719;48.188;11.618;2023-12-29T14:11:24;0.75;;;0.70;;
25915;SDS011;13719;48.188;11.618;2023-12-29T14:13:52;0.60;;;0.60;;
25915;SDS011;13719;48.188;11.618;2023-12-29T14:16:21;0.50;;;0.50;;
25915;SDS011;13719;48.188;11.618;2023-12-29T14:18:55;1.00;;;0.70;;
25915;SDS011;13719;48.188;11.618;2023-12-29T14:21:26;0.93;;;0.60;;
25915;SDS011;13719;48.188;11.618;2023-12-29T14:24:06;0.55;;;0.55;;
25915;SDS011;13719;48.188;11.618;2023-12-29T14:26:36;0.60;;;0.60;;
25915;SDS011;13719;48.188;11.618;2023-12-29T14:29:05;1.00;;;0.68;;
25915;SDS011;13719;48.188;11.618;2023-12-29T14:31:36;0.60;;;0.60;;
25915;SDS011;13719;48.188;11.618;2023-12-29T14:34:07;0.70;;;0.70;;
25915;SDS011;13719;48.188;11.618;2023-12-29T14:36:37;0.63;;;0.63;;
25915;SDS011;13719;48.188;11.618;2023-12-29T14:39:06;0.80;;;0.70;;
25915;SDS011;13719;48.188;11.618;2023-12-29T14:41:36;1.85;;;0.68;;
25915;SDS011;13719;48.188;11.618;2023-12-29T14:44:05;0.95;;;0.70;;
25915;SDS011;13719;48.188;11.618;2023-12-29T14:46:34;2.22;;;0.70;;
25915;SDS011;13719;48.188;11.618;2023-12-29T14:49:04;0.70;;;0.70;;
25915;SDS011;13719;48.188;11.618;2023-12-29T14:51:35;0.80;;;0.60;;